Flight Track Log - Related Links

Times and Time Zones

All times are in EDT time to prevent confusion due to time zone crossing. See the N525AL flight status page for this flight to view local times or setup timezone preferences in your user account.

Time Position Orientation Groundspeed Altitude Reporting Facility
EDT Latitude Longitude Course Direction KTS MPH feet Rate Location/Type
Mon 12:48:58 PM 30.2608 -91.7261 98° East 296 341 4,900  Level Houston Center
Mon 12:52:58 PM 30.2208 -91.3797 81° East 276 318 11,000 1,258 Climbing Houston Center
Mon 12:53:49 PM 30.2311 -91.3006 83° East 271 312 11,000  Level Houston Center
Mon 12:54:58 PM 30.2411 -91.2042 87° East 271 312 11,000  Level Houston Center
Mon 12:55:58 PM 30.2450 -91.1178 84° East 271 312 11,000  Level Houston Center
Mon 12:57:10 PM 30.2550 -91.0047 81° East 279 321 11,000  Level Houston Center
Mon 12:57:58 PM 30.2611 -90.9589 87° East 271 312 11,000 -56 Level Houston Center
Mon 12:58:58 PM 30.2667 -90.8508 84° East 271 312 10,900 -50 Descending Houston Center
Mon 12:59:58 PM 30.2744 -90.7617 86° East 271 312 10,900  Level Houston Center
Mon 01:00:58 PM 30.2800 -90.6725 84° East 271 312 10,900  Level Houston Center
Mon 01:01:58 PM 30.2878 -90.5836 84° East 271 312 10,900  Level Houston Center
Mon 01:02:58 PM 30.2953 -90.4969 86° East 271 312 10,900 -600 Level Houston Center
Mon 01:03:58 PM 30.3008 -90.4078 84° East 276 318 9,700 -1,350 Descending Houston Center
Mon 01:04:58 PM 30.3083 -90.3211 86° East 276 318 8,200 -1,550 Descending Houston Center
Mon 01:05:58 PM 30.3139 -90.2344 84° East 276 318 6,600 -1,550 Descending Houston Center
Mon 01:06:58 PM 30.3211 -90.1503 85° East 271 312 5,100 -1,500 Descending Houston Center
Mon 01:07:58 PM 30.3267 -90.0683 86° East 266 306 3,600 -1,286 Descending Houston Center
Mon 01:09:18 PM 30.3336 -89.9597 98° East 225 259 2,100 -723 Descending Houston Center
Mon 01:10:19 PM 30.3264 -89.8975 119° Southeast 185 213 1,900 -443 Descending Houston Center
Mon 01:11:20 PM 30.3028 -89.8472 49° Northeast 175 201 1,200 -783 Descending Houston Center
Mon 01:12:14 PM 30.3214 -89.8228 49° Northeast 121 139 400 -889 Descending Houston Center

Login

Don't have an account? Register now (free) for customized features, flight alerts, and more!